In Rescue
 
Open Full Screen Window  High Contrast Mode
Wind Gusting 14 knots
08
November 14, 2019 1:37 PM CST
Weather Information
Wind Direction
  230 °
Wind Speed
  08 kt (9 mph)
Wind Gust
  14 kt (16 mph)
Variable Wind
190°
250°
Altimeter
29.95 in
Visibility
10 SM
Temperature
-02° C
28° F
Dewpoint
-12° C
10° F
Humidity
47%
1hr Rain Fall
00.00 in.
24hr Rain Fall
00.00 in.
Sky Condition
Broken @ 5,000 ft
VFR

METAR KBFW 141937Z AUTO 23008G14KT 190V250 10SM BKN050 M02/M12 A2995 RMK AO2

FAA Disclaimer: The data displayed is for advisory purposes only and is not to be used for flight planning or operations.